Terminal Aerodrome Forecast
Issued by NWS Melbourne, FL

Current Version | Previous Version | Text Only | Print | Product List | Glossary On
Versions: 1 2 3 4 5 6 7 8 9 10 11 12 13 14 15 16 17 18 19
000
FTUS42 KMLB 252300
TAFMLB
TAF
KMLB 252320Z 2600/2624 02005KT P6SM OVC080
     FM260100 36004KT P6SM SCT100 BKN250
     FM261500 05008KT P6SM VCSH BKN025 BKN040=

USA.gov is the U.S. government's official web portal to all federal, state and local government web resources and services.